sensor_id;sensor_type;location;lat;lon;timestamp;temperature;humidity
34095;DHT22;20372;47.080;15.410;2023-02-11T00:01:48;-3.30;99.90
34095;DHT22;20372;47.080;15.410;2023-02-11T00:04:14;-2.90;99.90
34095;DHT22;20372;47.080;15.410;2023-02-11T00:06:39;-2.80;99.90
34095;DHT22;20372;47.080;15.410;2023-02-11T00:09:05;-2.80;99.90
34095;DHT22;20372;47.080;15.410;2023-02-11T00:11:31;-2.90;99.90
34095;DHT22;20372;47.080;15.410;2023-02-11T00:13:58;-3.20;99.90
34095;DHT22;20372;47.080;15.410;2023-02-11T00:16:24;-3.10;99.90
34095;DHT22;20372;47.080;15.410;2023-02-11T00:18:49;-3.10;99.90
34095;DHT22;20372;47.080;15.410;2023-02-11T00:21:23;-3.10;99.90
34095;DHT22;20372;47.080;15.410;2023-02-11T00:23:49;-3.30;99.90
34095;DHT22;20372;47.080;15.410;2023-02-11T00:26:16;-3.40;99.90
34095;DHT22;20372;47.080;15.410;2023-02-11T00:28:42;-3.20;99.90
34095;DHT22;20372;47.080;15.410;2023-02-11T00:31:08;-3.20;99.90
34095;DHT22;20372;47.080;15.410;2023-02-11T00:33:34;-3.10;99.90
34095;DHT22;20372;47.080;15.410;2023-02-11T00:36:06;-2.90;99.90
34095;DHT22;20372;47.080;15.410;2023-02-11T00:38:32;-3.00;99.90
34095;DHT22;20372;47.080;15.410;2023-02-11T00:40:58;-3.00;99.90
34095;DHT22;20372;47.080;15.410;2023-02-11T00:43:23;-3.00;99.90
34095;DHT22;20372;47.080;15.410;2023-02-11T00:45:49;-3.10;99.90
34095;DHT22;20372;47.080;15.410;2023-02-11T00:48:15;-3.00;99.90
34095;DHT22;20372;47.080;15.410;2023-02-11T00:50:40;-3.10;99.90
34095;DHT22;20372;47.080;15.410;2023-02-11T00:53:06;-3.00;99.90
34095;DHT22;20372;47.080;15.410;2023-02-11T00:55:31;-3.00;99.90
34095;DHT22;20372;47.080;15.410;2023-02-11T00:57:57;-2.90;99.90
34095;DHT22;20372;47.080;15.410;2023-02-11T01:00:24;-3.00;99.90
34095;DHT22;20372;47.080;15.410;2023-02-11T01:02:50;-2.90;99.90
34095;DHT22;20372;47.080;15.410;2023-02-11T01:05:16;-2.90;99.90
34095;DHT22;20372;47.080;15.410;2023-02-11T01:07:42;-2.90;99.90
34095;DHT22;20372;47.080;15.410;2023-02-11T01:10:07;-3.00;99.90
34095;DHT22;20372;47.080;15.410;2023-02-11T01:12:33;-3.00;99.90
34095;DHT22;20372;47.080;15.410;2023-02-11T01:14:59;-3.00;99.90
34095;DHT22;20372;47.080;15.410;2023-02-11T01:17:24;-3.00;99.90
34095;DHT22;20372;47.080;15.410;2023-02-11T01:19:50;-3.00;99.90
34095;DHT22;20372;47.080;15.410;2023-02-11T01:22:15;-3.00;99.90
34095;DHT22;20372;47.080;15.410;2023-02-11T01:24:41;-3.10;99.90
34095;DHT22;20372;47.080;15.410;2023-02-11T01:27:06;-3.20;99.90
34095;DHT22;20372;47.080;15.410;2023-02-11T01:29:32;-3.40;99.90
34095;DHT22;20372;47.080;15.410;2023-02-11T01:31:58;-3.60;99.90
34095;DHT22;20372;47.080;15.410;2023-02-11T01:34:24;-3.30;99.90
34095;DHT22;20372;47.080;15.410;2023-02-11T01:36:50;-3.20;99.90
34095;DHT22;20372;47.080;15.410;2023-02-11T01:39:15;-3.30;99.90
34095;DHT22;20372;47.080;15.410;2023-02-11T01:41:41;-3.20;99.90
34095;DHT22;20372;47.080;15.410;2023-02-11T01:44:26;-3.30;99.90
34095;DHT22;20372;47.080;15.410;2023-02-11T01:46:52;-3.30;99.90
34095;DHT22;20372;47.080;15.410;2023-02-11T01:49:22;-3.20;99.90
34095;DHT22;20372;47.080;15.410;2023-02-11T01:54:21;-3.60;99.90
34095;DHT22;20372;47.080;15.410;2023-02-11T01:57:07;-3.40;99.90
34095;DHT22;20372;47.080;15.410;2023-02-11T01:59:56;-3.30;99.90
34095;DHT22;20372;47.080;15.410;2023-02-11T02:05:20;-3.70;99.90
34095;DHT22;20372;47.080;15.410;2023-02-11T02:08:10;-3.50;99.90
34095;DHT22;20372;47.080;15.410;2023-02-11T02:10:33;-3.20;99.90
34095;DHT22;20372;47.080;15.410;2023-02-11T02:12:59;-3.00;99.90
34095;DHT22;20372;47.080;15.410;2023-02-11T02:15:27;-3.00;99.90
34095;DHT22;20372;47.080;15.410;2023-02-11T02:23:09;-3.30;99.90
34095;DHT22;20372;47.080;15.410;2023-02-11T02:33:32;-3.30;99.90
34095;DHT22;20372;47.080;15.410;2023-02-11T02:38:29;-3.30;99.90
34095;DHT22;20372;47.080;15.410;2023-02-11T02:40:57;-3.20;99.90
34095;DHT22;20372;47.080;15.410;2023-02-11T02:43:24;-3.20;99.90
34095;DHT22;20372;47.080;15.410;2023-02-11T02:45:50;-3.10;99.90
34095;DHT22;20372;47.080;15.410;2023-02-11T02:48:26;-3.20;99.90
34095;DHT22;20372;47.080;15.410;2023-02-11T02:50:55;-3.30;99.90
34095;DHT22;20372;47.080;15.410;2023-02-11T02:59:06;-3.40;99.90
34095;DHT22;20372;47.080;15.410;2023-02-11T03:04:11;-3.40;99.90
34095;DHT22;20372;47.080;15.410;2023-02-11T03:09:26;-3.60;99.90
34095;DHT22;20372;47.080;15.410;2023-02-11T03:11:53;-3.60;99.90
34095;DHT22;20372;47.080;15.410;2023-02-11T03:14:19;-3.80;99.90
34095;DHT22;20372;47.080;15.410;2023-02-11T03:16:46;-3.70;99.90
34095;DHT22;20372;47.080;15.410;2023-02-11T03:19:25;-3.80;99.90
34095;DHT22;20372;47.080;15.410;2023-02-11T03:21:53;-3.90;99.90
34095;DHT22;20372;47.080;15.410;2023-02-11T03:24:20;-3.80;99.90
34095;DHT22;20372;47.080;15.410;2023-02-11T03:26:49;-3.80;99.90
34095;DHT22;20372;47.080;15.410;2023-02-11T03:29:17;-3.80;99.90
34095;DHT22;20372;47.080;15.410;2023-02-11T03:31:50;-4.00;99.90
34095;DHT22;20372;47.080;15.410;2023-02-11T03:36:53;-3.80;99.90
34095;DHT22;20372;47.080;15.410;2023-02-11T03:39:22;-3.90;99.90
34095;DHT22;20372;47.080;15.410;2023-02-11T03:41:49;-3.90;99.90
34095;DHT22;20372;47.080;15.410;2023-02-11T03:44:16;-3.80;99.90
34095;DHT22;20372;47.080;15.410;2023-02-11T03:46:43;-3.90;99.90
34095;DHT22;20372;47.080;15.410;2023-02-11T03:49:12;-4.00;99.90
34095;DHT22;20372;47.080;15.410;2023-02-11T03:51:39;-4.30;99.90
34095;DHT22;20372;47.080;15.410;2023-02-11T03:54:06;-4.30;99.90
34095;DHT22;20372;47.080;15.410;2023-02-11T03:56:38;-4.00;99.90
34095;DHT22;20372;47.080;15.410;2023-02-11T03:59:04;-4.00;99.90
34095;DHT22;20372;47.080;15.410;2023-02-11T04:01:29;-4.00;99.90
34095;DHT22;20372;47.080;15.410;2023-02-11T04:03:55;-4.40;99.90
34095;DHT22;20372;47.080;15.410;2023-02-11T04:06:20;-4.20;99.90
34095;DHT22;20372;47.080;15.410;2023-02-11T04:08:46;-4.20;99.90
34095;DHT22;20372;47.080;15.410;2023-02-11T04:11:12;-4.20;99.90
34095;DHT22;20372;47.080;15.410;2023-02-11T04:13:37;-4.20;99.90
34095;DHT22;20372;47.080;15.410;2023-02-11T04:16:03;-4.20;99.90
34095;DHT22;20372;47.080;15.410;2023-02-11T04:18:28;-4.40;99.90
34095;DHT22;20372;47.080;15.410;2023-02-11T04:20:54;-4.30;99.90
34095;DHT22;20372;47.080;15.410;2023-02-11T04:23:19;-4.40;99.90
34095;DHT22;20372;47.080;15.410;2023-02-11T04:25:45;-4.50;99.90
34095;DHT22;20372;47.080;15.410;2023-02-11T04:28:11;-4.40;99.90
34095;DHT22;20372;47.080;15.410;2023-02-11T04:30:36;-4.30;99.90
34095;DHT22;20372;47.080;15.410;2023-02-11T04:33:02;-4.30;99.90
34095;DHT22;20372;47.080;15.410;2023-02-11T04:35:27;-4.10;99.90
34095;DHT22;20372;47.080;15.410;2023-02-11T04:37:53;-4.10;99.90
34095;DHT22;20372;47.080;15.410;2023-02-11T04:40:18;-4.20;99.90
34095;DHT22;20372;47.080;15.410;2023-02-11T04:42:44;-4.10;99.90
34095;DHT22;20372;47.080;15.410;2023-02-11T04:45:10;-4.00;99.90
34095;DHT22;20372;47.080;15.410;2023-02-11T04:47:35;-3.90;99.90
34095;DHT22;20372;47.080;15.410;2023-02-11T04:50:02;-3.90;99.90
34095;DHT22;20372;47.080;15.410;2023-02-11T04:52:28;-4.10;99.90
34095;DHT22;20372;47.080;15.410;2023-02-11T04:54:53;-4.00;99.90
34095;DHT22;20372;47.080;15.410;2023-02-11T04:57:19;-4.10;99.90
34095;DHT22;20372;47.080;15.410;2023-02-11T04:59:45;-4.10;99.90
34095;DHT22;20372;47.080;15.410;2023-02-11T05:02:10;-4.20;99.90
34095;DHT22;20372;47.080;15.410;2023-02-11T05:04:36;-4.30;99.90
34095;DHT22;20372;47.080;15.410;2023-02-11T05:07:01;-4.30;99.90
34095;DHT22;20372;47.080;15.410;2023-02-11T05:09:27;-4.20;99.90
34095;DHT22;20372;47.080;15.410;2023-02-11T05:11:52;-4.00;99.90
34095;DHT22;20372;47.080;15.410;2023-02-11T05:14:18;-4.10;99.90
34095;DHT22;20372;47.080;15.410;2023-02-11T05:16:44;-4.20;99.90
34095;DHT22;20372;47.080;15.410;2023-02-11T05:19:09;-4.20;99.90
34095;DHT22;20372;47.080;15.410;2023-02-11T05:21:35;-4.20;99.90
34095;DHT22;20372;47.080;15.410;2023-02-11T05:24:00;-4.00;99.90
34095;DHT22;20372;47.080;15.410;2023-02-11T05:26:26;-4.10;99.90
34095;DHT22;20372;47.080;15.410;2023-02-11T05:28:51;-4.20;99.90
34095;DHT22;20372;47.080;15.410;2023-02-11T05:31:17;-4.10;99.90
34095;DHT22;20372;47.080;15.410;2023-02-11T05:33:43;-4.10;99.90
34095;DHT22;20372;47.080;15.410;2023-02-11T05:36:09;-4.40;99.90
34095;DHT22;20372;47.080;15.410;2023-02-11T05:38:35;-4.50;99.90
34095;DHT22;20372;47.080;15.410;2023-02-11T05:41:02;-4.50;99.90
34095;DHT22;20372;47.080;15.410;2023-02-11T05:43:27;-4.30;99.90
34095;DHT22;20372;47.080;15.410;2023-02-11T05:45:53;-4.30;99.90
34095;DHT22;20372;47.080;15.410;2023-02-11T05:48:19;-4.40;99.90
34095;DHT22;20372;47.080;15.410;2023-02-11T05:50:44;-4.30;99.90
34095;DHT22;20372;47.080;15.410;2023-02-11T05:53:10;-4.20;99.90
34095;DHT22;20372;47.080;15.410;2023-02-11T05:55:36;-3.90;99.90
34095;DHT22;20372;47.080;15.410;2023-02-11T05:58:01;-4.00;99.90
34095;DHT22;20372;47.080;15.410;2023-02-11T06:00:27;-3.90;99.90
34095;DHT22;20372;47.080;15.410;2023-02-11T06:02:53;-3.90;99.90
34095;DHT22;20372;47.080;15.410;2023-02-11T06:05:18;-3.90;99.90
34095;DHT22;20372;47.080;15.410;2023-02-11T06:07:44;-3.90;99.90
34095;DHT22;20372;47.080;15.410;2023-02-11T06:10:10;-4.20;99.90
34095;DHT22;20372;47.080;15.410;2023-02-11T06:12:36;-4.00;99.90
34095;DHT22;20372;47.080;15.410;2023-02-11T06:15:02;-3.80;99.90
34095;DHT22;20372;47.080;15.410;2023-02-11T06:17:27;-3.70;99.90
34095;DHT22;20372;47.080;15.410;2023-02-11T06:20:00;-3.70;99.90
34095;DHT22;20372;47.080;15.410;2023-02-11T06:22:27;-3.80;99.90
34095;DHT22;20372;47.080;15.410;2023-02-11T06:24:52;-3.70;99.90
34095;DHT22;20372;47.080;15.410;2023-02-11T06:27:18;-3.60;99.90
34095;DHT22;20372;47.080;15.410;2023-02-11T06:29:44;-3.50;99.90
34095;DHT22;20372;47.080;15.410;2023-02-11T06:32:10;-3.40;99.90
34095;DHT22;20372;47.080;15.410;2023-02-11T06:34:35;-3.20;99.90
34095;DHT22;20372;47.080;15.410;2023-02-11T06:37:01;-3.30;99.90
34095;DHT22;20372;47.080;15.410;2023-02-11T06:39:27;-3.20;99.90
34095;DHT22;20372;47.080;15.410;2023-02-11T06:41:52;-3.20;99.90
34095;DHT22;20372;47.080;15.410;2023-02-11T06:44:18;-3.10;99.90
34095;DHT22;20372;47.080;15.410;2023-02-11T06:46:43;-3.00;99.90
34095;DHT22;20372;47.080;15.410;2023-02-11T06:49:09;-2.90;99.90
34095;DHT22;20372;47.080;15.410;2023-02-11T06:51:35;-2.80;99.90
34095;DHT22;20372;47.080;15.410;2023-02-11T06:54:01;-2.60;99.90
34095;DHT22;20372;47.080;15.410;2023-02-11T06:56:26;-2.70;99.90
34095;DHT22;20372;47.080;15.410;2023-02-11T06:58:52;-2.80;99.90
34095;DHT22;20372;47.080;15.410;2023-02-11T07:01:19;-2.40;99.90
34095;DHT22;20372;47.080;15.410;2023-02-11T07:03:44;-2.30;99.90
34095;DHT22;20372;47.080;15.410;2023-02-11T07:06:18;-2.00;99.90
34095;DHT22;20372;47.080;15.410;2023-02-11T07:08:45;-1.80;99.90
34095;DHT22;20372;47.080;15.410;2023-02-11T07:11:12;-1.70;99.90
34095;DHT22;20372;47.080;15.410;2023-02-11T07:13:38;-1.60;99.90
34095;DHT22;20372;47.080;15.410;2023-02-11T07:16:07;-1.50;99.90
34095;DHT22;20372;47.080;15.410;2023-02-11T07:18:33;-1.50;99.90
34095;DHT22;20372;47.080;15.410;2023-02-11T07:21:02;-1.50;99.90
34095;DHT22;20372;47.080;15.410;2023-02-11T07:23:28;-1.30;99.90
34095;DHT22;20372;47.080;15.410;2023-02-11T07:25:54;-1.30;99.90
34095;DHT22;20372;47.080;15.410;2023-02-11T07:28:19;-1.30;99.90
34095;DHT22;20372;47.080;15.410;2023-02-11T07:30:45;-1.10;99.90
34095;DHT22;20372;47.080;15.410;2023-02-11T07:33:10;-0.80;99.90
34095;DHT22;20372;47.080;15.410;2023-02-11T07:35:36;-0.60;99.90
34095;DHT22;20372;47.080;15.410;2023-02-11T07:38:01;-0.30;99.90
34095;DHT22;20372;47.080;15.410;2023-02-11T07:40:27;0.10;99.90
34095;DHT22;20372;47.080;15.410;2023-02-11T07:42:53;0.70;99.90
34095;DHT22;20372;47.080;15.410;2023-02-11T07:45:18;1.30;99.40
34095;DHT22;20372;47.080;15.410;2023-02-11T07:47:44;1.80;97.30
34095;DHT22;20372;47.080;15.410;2023-02-11T07:50:10;1.90;95.80
34095;DHT22;20372;47.080;15.410;2023-02-11T07:52:35;1.10;96.30
34095;DHT22;20372;47.080;15.410;2023-02-11T07:55:01;0.10;97.70
34095;DHT22;20372;47.080;15.410;2023-02-11T07:57:27;1.20;99.50
34095;DHT22;20372;47.080;15.410;2023-02-11T07:59:52;0.60;98.30
34095;DHT22;20372;47.080;15.410;2023-02-11T08:02:18;0.40;98.40
34095;DHT22;20372;47.080;15.410;2023-02-11T08:04:46;0.40;98.60
34095;DHT22;20372;47.080;15.410;2023-02-11T08:07:18;0.50;98.60
34095;DHT22;20372;47.080;15.410;2023-02-11T08:09:43;0.50;98.30
34095;DHT22;20372;47.080;15.410;2023-02-11T08:12:09;0.40;98.00
34095;DHT22;20372;47.080;15.410;2023-02-11T08:14:35;0.10;97.40
34095;DHT22;20372;47.080;15.410;2023-02-11T08:17:01;0.20;98.10
34095;DHT22;20372;47.080;15.410;2023-02-11T08:19:26;0.70;98.00
34095;DHT22;20372;47.080;15.410;2023-02-11T08:21:55;1.60;97.00
34095;DHT22;20372;47.080;15.410;2023-02-11T08:24:21;3.30;96.30
34095;DHT22;20372;47.080;15.410;2023-02-11T08:26:47;3.90;92.70
34095;DHT22;20372;47.080;15.410;2023-02-11T08:29:13;3.20;92.40
34095;DHT22;20372;47.080;15.410;2023-02-11T08:31:40;4.30;92.50
34095;DHT22;20372;47.080;15.410;2023-02-11T08:34:06;5.80;91.40
34095;DHT22;20372;47.080;15.410;2023-02-11T08:36:33;6.10;88.50
34095;DHT22;20372;47.080;15.410;2023-02-11T08:39:00;6.20;85.10
34095;DHT22;20372;47.080;15.410;2023-02-11T08:41:33;6.60;85.10
34095;DHT22;20372;47.080;15.410;2023-02-11T08:43:58;5.90;86.30
34095;DHT22;20372;47.080;15.410;2023-02-11T08:46:24;6.00;84.20
34095;DHT22;20372;47.080;15.410;2023-02-11T08:48:50;6.20;83.80
34095;DHT22;20372;47.080;15.410;2023-02-11T08:51:16;5.80;82.30
34095;DHT22;20372;47.080;15.410;2023-02-11T08:53:42;6.70;82.50
34095;DHT22;20372;47.080;15.410;2023-02-11T08:56:09;6.90;80.40
34095;DHT22;20372;47.080;15.410;2023-02-11T08:58:35;6.20;83.40
34095;DHT22;20372;47.080;15.410;2023-02-11T09:01:00;5.40;82.80
34095;DHT22;20372;47.080;15.410;2023-02-11T09:03:26;5.10;84.40
34095;DHT22;20372;47.080;15.410;2023-02-11T09:05:52;5.40;84.80
34095;DHT22;20372;47.080;15.410;2023-02-11T09:08:19;5.60;84.00
34095;DHT22;20372;47.080;15.410;2023-02-11T09:10:45;5.20;82.70
34095;DHT22;20372;47.080;15.410;2023-02-11T09:13:10;4.80;83.10
34095;DHT22;20372;47.080;15.410;2023-02-11T09:15:36;4.90;82.20
34095;DHT22;20372;47.080;15.410;2023-02-11T09:18:02;4.30;82.80
34095;DHT22;20372;47.080;15.410;2023-02-11T09:20:28;3.70;84.50
34095;DHT22;20372;47.080;15.410;2023-02-11T09:22:55;3.50;85.50
34095;DHT22;20372;47.080;15.410;2023-02-11T09:25:21;3.90;87.20
34095;DHT22;20372;47.080;15.410;2023-02-11T09:27:47;4.70;85.90
34095;DHT22;20372;47.080;15.410;2023-02-11T09:30:12;4.80;83.90
34095;DHT22;20372;47.080;15.410;2023-02-11T09:32:38;4.90;85.20
34095;DHT22;20372;47.080;15.410;2023-02-11T09:35:04;4.10;83.80
34095;DHT22;20372;47.080;15.410;2023-02-11T09:37:29;4.60;86.00
34095;DHT22;20372;47.080;15.410;2023-02-11T09:39:55;5.20;85.80
34095;DHT22;20372;47.080;15.410;2023-02-11T09:45:09;4.30;84.90
34095;DHT22;20372;47.080;15.410;2023-02-11T09:47:41;4.10;86.80
34095;DHT22;20372;47.080;15.410;2023-02-11T09:50:13;3.50;86.80
34095;DHT22;20372;47.080;15.410;2023-02-11T09:55:18;3.70;87.00
34095;DHT22;20372;47.080;15.410;2023-02-11T09:57:45;3.50;87.60
34095;DHT22;20372;47.080;15.410;2023-02-11T10:18:24;3.90;86.80
34095;DHT22;20372;47.080;15.410;2023-02-11T10:23:24;4.40;84.60
34095;DHT22;20372;47.080;15.410;2023-02-11T10:25:51;3.80;86.50
34095;DHT22;20372;47.080;15.410;2023-02-11T10:28:20;3.90;86.40
34095;DHT22;20372;47.080;15.410;2023-02-11T10:33:30;4.10;85.20
34095;DHT22;20372;47.080;15.410;2023-02-11T10:35:58;4.60;84.40
34095;DHT22;20372;47.080;15.410;2023-02-11T10:38:24;4.60;83.90
34095;DHT22;20372;47.080;15.410;2023-02-11T10:40:51;5.10;85.20
34095;DHT22;20372;47.080;15.410;2023-02-11T10:43:17;5.50;85.10
34095;DHT22;20372;47.080;15.410;2023-02-11T10:45:48;5.20;81.40
34095;DHT22;20372;47.080;15.410;2023-02-11T10:51:41;5.30;86.30
34095;DHT22;20372;47.080;15.410;2023-02-11T10:53:49;5.80;84.20
34095;DHT22;20372;47.080;15.410;2023-02-11T10:56:27;6.10;83.20
34095;DHT22;20372;47.080;15.410;2023-02-11T10:58:59;6.20;82.40
34095;DHT22;20372;47.080;15.410;2023-02-11T11:04:03;6.00;82.10
34095;DHT22;20372;47.080;15.410;2023-02-11T11:06:30;6.50;83.20
34095;DHT22;20372;47.080;15.410;2023-02-11T11:08:56;7.10;82.00
34095;DHT22;20372;47.080;15.410;2023-02-11T11:11:22;6.70;80.50
34095;DHT22;20372;47.080;15.410;2023-02-11T11:18:49;6.90;79.60
34095;DHT22;20372;47.080;15.410;2023-02-11T11:21:23;7.50;82.30
34095;DHT22;20372;47.080;15.410;2023-02-11T11:23:58;7.60;81.90
34095;DHT22;20372;47.080;15.410;2023-02-11T11:26:25;6.70;78.10
34095;DHT22;20372;47.080;15.410;2023-02-11T11:28:59;6.70;81.80
34095;DHT22;20372;47.080;15.410;2023-02-11T11:31:29;7.20;81.60
34095;DHT22;20372;47.080;15.410;2023-02-11T11:33:56;7.10;81.30
34095;DHT22;20372;47.080;15.410;2023-02-11T11:36:23;6.70;80.30
34095;DHT22;20372;47.080;15.410;2023-02-11T11:38:55;5.90;81.00
34095;DHT22;20372;47.080;15.410;2023-02-11T11:46:32;6.30;81.60
34095;DHT22;20372;47.080;15.410;2023-02-11T11:54:44;6.70;83.00
34095;DHT22;20372;47.080;15.410;2023-02-11T11:57:14;7.30;81.80
34095;DHT22;20372;47.080;15.410;2023-02-11T11:59:41;7.50;82.20
34095;DHT22;20372;47.080;15.410;2023-02-11T12:04:39;7.80;79.60
34095;DHT22;20372;47.080;15.410;2023-02-11T12:12:34;7.70;78.10
34095;DHT22;20372;47.080;15.410;2023-02-11T12:17:36;7.70;78.30
34095;DHT22;20372;47.080;15.410;2023-02-11T12:25:26;8.60;78.20
34095;DHT22;20372;47.080;15.410;2023-02-11T12:27:57;8.60;74.10
34095;DHT22;20372;47.080;15.410;2023-02-11T12:38:23;7.50;75.70
34095;DHT22;20372;47.080;15.410;2023-02-11T12:43:40;7.80;75.20
34095;DHT22;20372;47.080;15.410;2023-02-11T12:56:05;9.20;73.60
34095;DHT22;20372;47.080;15.410;2023-02-11T12:58:35;9.20;70.70
34095;DHT22;20372;47.080;15.410;2023-02-11T13:01:05;9.50;71.90
34095;DHT22;20372;47.080;15.410;2023-02-11T13:03:37;9.30;70.20
34095;DHT22;20372;47.080;15.410;2023-02-11T13:06:06;9.60;69.50
34095;DHT22;20372;47.080;15.410;2023-02-11T13:11:10;9.40;68.40
34095;DHT22;20372;47.080;15.410;2023-02-11T13:13:54;9.30;67.40
34095;DHT22;20372;47.080;15.410;2023-02-11T13:23:58;9.40;67.40
34095;DHT22;20372;47.080;15.410;2023-02-11T13:26:30;9.40;67.80
34095;DHT22;20372;47.080;15.410;2023-02-11T13:31:29;9.50;66.20
34095;DHT22;20372;47.080;15.410;2023-02-11T13:33:56;9.70;67.50
34095;DHT22;20372;47.080;15.410;2023-02-11T13:36:25;9.50;66.40
34095;DHT22;20372;47.080;15.410;2023-02-11T13:38:59;9.80;68.30
34095;DHT22;20372;47.080;15.410;2023-02-11T13:41:30;9.90;67.30
34095;DHT22;20372;47.080;15.410;2023-02-11T13:43:57;9.80;67.40
34095;DHT22;20372;47.080;15.410;2023-02-11T13:46:23;9.60;68.80
34095;DHT22;20372;47.080;15.410;2023-02-11T13:48:50;9.60;69.00
34095;DHT22;20372;47.080;15.410;2023-02-11T13:51:39;9.30;68.00
34095;DHT22;20372;47.080;15.410;2023-02-11T13:54:03;8.90;67.30
34095;DHT22;20372;47.080;15.410;2023-02-11T13:56:36;8.60;67.70
34095;DHT22;20372;47.080;15.410;2023-02-11T13:59:03;8.60;68.60
34095;DHT22;20372;47.080;15.410;2023-02-11T14:01:40;8.50;67.70
34095;DHT22;20372;47.080;15.410;2023-02-11T14:04:20;8.70;67.50
34095;DHT22;20372;47.080;15.410;2023-02-11T14:15:38;8.80;67.40
34095;DHT22;20372;47.080;15.410;2023-02-11T14:20:48;8.80;67.30
34095;DHT22;20372;47.080;15.410;2023-02-11T14:23:21;8.90;68.40
34095;DHT22;20372;47.080;15.410;2023-02-11T14:25:51;8.70;69.30
34095;DHT22;20372;47.080;15.410;2023-02-11T14:28:21;8.70;69.00
34095;DHT22;20372;47.080;15.410;2023-02-11T14:31:07;9.00;67.10
34095;DHT22;20372;47.080;15.410;2023-02-11T14:38:56;8.20;66.80
34095;DHT22;20372;47.080;15.410;2023-02-11T14:41:30;8.10;65.70
34095;DHT22;20372;47.080;15.410;2023-02-11T14:43:57;8.00;65.80
34095;DHT22;20372;47.080;15.410;2023-02-11T14:46:24;7.90;65.60
34095;DHT22;20372;47.080;15.410;2023-02-11T14:48:52;8.00;66.00
34095;DHT22;20372;47.080;15.410;2023-02-11T14:51:23;8.10;66.20
34095;DHT22;20372;47.080;15.410;2023-02-11T14:53:51;8.10;67.30
34095;DHT22;20372;47.080;15.410;2023-02-11T14:56:19;8.10;65.30
34095;DHT22;20372;47.080;15.410;2023-02-11T14:58:46;8.20;66.00
34095;DHT22;20372;47.080;15.410;2023-02-11T15:01:23;8.10;64.70
34095;DHT22;20372;47.080;15.410;2023-02-11T15:03:51;8.50;65.00
34095;DHT22;20372;47.080;15.410;2023-02-11T15:06:21;8.50;64.50
34095;DHT22;20372;47.080;15.410;2023-02-11T15:08:49;8.20;65.40
34095;DHT22;20372;47.080;15.410;2023-02-11T15:11:16;8.10;65.40
34095;DHT22;20372;47.080;15.410;2023-02-11T15:13:42;8.00;66.30
34095;DHT22;20372;47.080;15.410;2023-02-11T15:16:22;8.00;67.70
34095;DHT22;20372;47.080;15.410;2023-02-11T15:18:52;8.00;67.10
34095;DHT22;20372;47.080;15.410;2023-02-11T15:21:19;7.80;67.60
34095;DHT22;20372;47.080;15.410;2023-02-11T15:23:53;7.70;65.70
34095;DHT22;20372;47.080;15.410;2023-02-11T15:26:20;7.70;65.70
34095;DHT22;20372;47.080;15.410;2023-02-11T15:28:46;7.60;66.70
34095;DHT22;20372;47.080;15.410;2023-02-11T15:31:17;7.60;67.20
34095;DHT22;20372;47.080;15.410;2023-02-11T15:33:43;7.50;67.70
34095;DHT22;20372;47.080;15.410;2023-02-11T15:36:11;7.50;67.90
34095;DHT22;20372;47.080;15.410;2023-02-11T15:38:37;7.40;68.10
34095;DHT22;20372;47.080;15.410;2023-02-11T15:41:03;7.40;68.00
34095;DHT22;20372;47.080;15.410;2023-02-11T15:46:06;7.40;68.90
34095;DHT22;20372;47.080;15.410;2023-02-11T15:48:35;7.30;69.20
34095;DHT22;20372;47.080;15.410;2023-02-11T15:51:02;7.30;68.80
34095;DHT22;20372;47.080;15.410;2023-02-11T15:53:30;7.20;68.70
34095;DHT22;20372;47.080;15.410;2023-02-11T15:56:07;7.20;70.20
34095;DHT22;20372;47.080;15.410;2023-02-11T15:58:39;7.10;71.50
34095;DHT22;20372;47.080;15.410;2023-02-11T16:01:05;7.10;69.40
34095;DHT22;20372;47.080;15.410;2023-02-11T16:03:31;7.00;69.00
34095;DHT22;20372;47.080;15.410;2023-02-11T16:08:41;7.00;67.60
34095;DHT22;20372;47.080;15.410;2023-02-11T16:13:51;6.80;68.00
34095;DHT22;20372;47.080;15.410;2023-02-11T16:16:18;6.70;68.10
34095;DHT22;20372;47.080;15.410;2023-02-11T16:18:46;6.70;68.40
34095;DHT22;20372;47.080;15.410;2023-02-11T16:21:15;6.50;70.60
34095;DHT22;20372;47.080;15.410;2023-02-11T16:23:41;6.40;69.20
34095;DHT22;20372;47.080;15.410;2023-02-11T16:28:48;6.20;71.00
34095;DHT22;20372;47.080;15.410;2023-02-11T16:31:14;6.00;71.60
34095;DHT22;20372;47.080;15.410;2023-02-11T16:33:40;5.80;71.80
34095;DHT22;20372;47.080;15.410;2023-02-11T16:36:12;5.80;72.60
34095;DHT22;20372;47.080;15.410;2023-02-11T16:38:38;5.50;73.00
34095;DHT22;20372;47.080;15.410;2023-02-11T16:41:04;5.30;73.00
34095;DHT22;20372;47.080;15.410;2023-02-11T16:43:29;5.30;74.00
34095;DHT22;20372;47.080;15.410;2023-02-11T16:45:56;5.20;73.00
34095;DHT22;20372;47.080;15.410;2023-02-11T16:48:22;5.10;75.10
34095;DHT22;20372;47.080;15.410;2023-02-11T16:50:48;4.90;74.90
34095;DHT22;20372;47.080;15.410;2023-02-11T16:53:18;4.90;77.90
34095;DHT22;20372;47.080;15.410;2023-02-11T16:55:45;4.80;77.60
34095;DHT22;20372;47.080;15.410;2023-02-11T16:58:11;4.70;78.20
34095;DHT22;20372;47.080;15.410;2023-02-11T17:00:36;4.70;79.50
34095;DHT22;20372;47.080;15.410;2023-02-11T17:03:05;4.60;78.50
34095;DHT22;20372;47.080;15.410;2023-02-11T17:05:32;4.60;78.50
34095;DHT22;20372;47.080;15.410;2023-02-11T17:07:58;4.60;78.80
34095;DHT22;20372;47.080;15.410;2023-02-11T17:10:26;4.70;78.30
34095;DHT22;20372;47.080;15.410;2023-02-11T17:12:51;4.70;79.50
34095;DHT22;20372;47.080;15.410;2023-02-11T17:15:17;4.60;79.20
34095;DHT22;20372;47.080;15.410;2023-02-11T17:17:43;4.50;81.80
34095;DHT22;20372;47.080;15.410;2023-02-11T17:20:11;4.30;80.60
34095;DHT22;20372;47.080;15.410;2023-02-11T17:22:37;4.30;79.90
34095;DHT22;20372;47.080;15.410;2023-02-11T17:25:02;4.30;80.70
34095;DHT22;20372;47.080;15.410;2023-02-11T17:27:28;4.40;80.70
34095;DHT22;20372;47.080;15.410;2023-02-11T17:29:53;4.40;80.30
34095;DHT22;20372;47.080;15.410;2023-02-11T17:32:19;4.50;81.10
34095;DHT22;20372;47.080;15.410;2023-02-11T17:34:45;4.40;81.30
34095;DHT22;20372;47.080;15.410;2023-02-11T17:37:10;4.40;81.30
34095;DHT22;20372;47.080;15.410;2023-02-11T17:39:36;4.50;81.40
34095;DHT22;20372;47.080;15.410;2023-02-11T17:42:03;4.30;82.00
34095;DHT22;20372;47.080;15.410;2023-02-11T17:44:30;4.30;83.30
34095;DHT22;20372;47.080;15.410;2023-02-11T17:46:56;4.10;84.30
34095;DHT22;20372;47.080;15.410;2023-02-11T17:49:21;4.00;83.70
34095;DHT22;20372;47.080;15.410;2023-02-11T17:51:47;3.90;83.90
34095;DHT22;20372;47.080;15.410;2023-02-11T17:54:14;3.90;84.50
34095;DHT22;20372;47.080;15.410;2023-02-11T17:56:41;3.80;84.30
34095;DHT22;20372;47.080;15.410;2023-02-11T17:59:07;3.80;84.40
34095;DHT22;20372;47.080;15.410;2023-02-11T18:01:33;3.80;83.60
34095;DHT22;20372;47.080;15.410;2023-02-11T18:03:59;3.80;84.00
34095;DHT22;20372;47.080;15.410;2023-02-11T18:06:25;3.70;86.20
34095;DHT22;20372;47.080;15.410;2023-02-11T18:08:51;3.50;84.70